Latest Coastal Weather Observations for Troughton Island

IDW60701

Issued at 6:02 am WST Monday 8 February 2016 (issued every 10 minutes, with the page automatically refreshed every 10 minutes)

About coastal observations | Map of coastal stations | Coastal observations for WA | Marine services | Other Formats
Station Details ID: 001007 Name: TROUGHTON ISLAND Lat: -13.75 Lon: 126.15 Height: 6.0 m
Data from the previous 72 hours. | See also: Recent months at Troughton Island
Date/Time
WST
Temp

°C
Wind Pressure Rain
since 9am
mm
Weather Cloud Vis
km
Sea
Height
m
Swell
Dir
 
Speed
knots
Gust
knots
hPa Trend Height
m
Period
s
Dir
08/06:00am 28.3 SSE 4 4 1008.8 - 0.0 - - - - - - -
08/05:30am 28.0 S 4 4 1008.6 - 0.0 - - - - - - -
08/05:00am 27.8 S 4 5 1008.2 - 0.0 - - - - - - -
08/04:30am 28.4 S 5 6 1008.2 - 0.0 - - - - - - -
08/04:00am 28.0 S 5 5 1008.0 - 0.0 - - - - - - -
08/03:30am 28.5 S 6 7 1007.9 - 0.0 - - - - - - -
08/03:00am 28.4 SSE 7 8 1007.8 - 0.0 - - - - - - -
08/02:30am 28.6 S 6 7 1007.9 - 0.0 - - - - - - -
08/02:00am 28.8 S 8 9 1007.9 - 0.0 - - - - - - -
08/01:30am 28.7 SSE 8 10 1008.2 - 0.0 - - - - - - -
08/01:00am 28.8 SSE 8 9 1008.5 - 0.0 - - - - - - -
08/12:30am 28.8 SSE 7 7 1008.8 - 0.0 - - - - - - -
08/12:00am 28.8 SSE 6 7 1009.1 - 0.0 - - - - - - -
 
Date/Time
WST
Temp

°C
Wind Pressure Rain
since 9am
mm
Weather Cloud Vis
km
Sea
Height
m
Swell
Dir
 
Speed
knots
Gust
knots
hPa Trend Height
m
Period
s
Dir
07/11:30pm 29.1 S 5 6 1009.4 - 0.0 - - - - - - -
07/11:00pm 29.4 SSW 7 7 1009.5 - 0.0 - - - - - - -
07/10:30pm 29.4 SSW 7 9 1009.6 - 0.0 - - - - - - -
07/10:00pm 29.2 SSW 6 7 1009.7 - 0.0 - - - - - - -
07/09:30pm 29.2 SW 7 8 1009.5 - 0.0 - - - - - - -
07/09:00pm 29.3 SSW 7 8 1009.3 - 0.0 - - - - - - -
07/08:30pm 29.5 SSW 10 12 1009.2 - 0.0 - - - - - - -
07/08:00pm 29.9 SW 11 13 1009.2 - 0.0 - - - - - - -
07/07:30pm 30.0 SW 10 12 1009.1 - 0.0 - - - - - - -
07/07:00pm 30.0 WSW 9 11 1008.6 - 0.0 - - - - - - -
07/06:30pm 30.3 WSW 10 11 1008.4 - 0.0 - - - - - - -
07/06:00pm 30.5 W 7 9 1007.7 - 0.0 - - - - - - -
07/05:30pm 31.0 W 8 9 1007.2 - 0.0 - - - - - - -
07/05:00pm 31.5 WNW 9 11 1006.7 - 0.0 - - - - - - -
07/04:30pm 31.7 NW 9 11 1006.1 - 0.0 - - - - - - -
07/04:00pm 31.9 NW 9 11 1006.0 - 0.0 - - - - - - -
07/03:30pm 32.2 NW 9 10 1005.9 - 0.0 - - - - - - -
07/03:00pm 32.1 WNW 8 9 1006.0 - 0.0 - - - - - - -
07/02:30pm 32.1 WNW 7 8 1006.3 - 0.0 - - - - - - -
07/02:00pm 32.1 WNW 7 8 1006.7 - 0.0 - - - - - - -
07/01:30pm 31.8 NW 7 9 1006.9 - 0.0 - - - - - - -
07/01:00pm 31.3 NNW 6 8 1007.3 - 0.0 - - - - - - -
07/12:30pm 31.0 NNW 5 7 1007.6 - 0.0 - - - - - - -
07/12:00pm 31.2 NW 5 8 1007.9 - 0.0 - - - - - - -
07/11:30am 31.2 WNW 3 4 1008.1 - 0.0 - - - - - - -
07/11:00am 31.0 SSE 3 4 1008.3 - 0.0 - - - - - - -
07/10:30am 30.5 SW 3 4 1008.8 - 0.0 - - - - - - -
07/10:00am 31.6 SSE 5 7 1008.8 - 0.0 - - - - - - -
07/09:30am 30.7 SE 5 7 1008.7 - 0.0 - - - - - - -
07/09:00am 30.7 SSE 6 7 1008.7 - 0.0 - - - - - - -
07/08:30am 30.6 SSE 5 6 1008.6 - 0.0 - - - - - - -
07/08:00am 30.4 SSW 5 6 1008.5 - 0.0 - - - - - - -
07/07:30am 30.0 SSW 5 6 1008.3 - 0.0 - - - - - - -
07/07:00am 29.7 S 5 6 1008.1 - 0.0 - - - - - - -
07/06:30am 29.0 SSE 4 5 1007.8 - 0.0 - - - - - - -
07/06:00am 28.4 SW 4 5 1007.4 - 0.0 - - - - - - -
07/05:30am 28.3 SW 4 5 1007.1 - 0.0 - - - - - - -
07/05:00am 28.1 SW 5 6 1006.8 - 0.0 - - - - - - -
07/04:30am 28.2 SW 5 6 1006.6 - 0.0 - - - - - - -
07/04:00am 28.4 WSW 6 7 1006.5 - 0.0 - - - - - - -
07/03:30am 28.4 WSW 6 7 1006.5 - 0.0 - - - - - - -
07/03:00am 28.5 WSW 5 7 1006.4 - 0.0 - - - - - - -
07/02:30am 28.4 SW 4 5 1006.4 - 0.0 - - - - - - -
07/02:00am 28.4 WSW 5 6 1006.4 - 0.0 - - - - - - -
07/01:30am 28.3 WSW 6 7 1006.4 - 0.0 - - - - - - -
07/01:00am 28.2 SSW 4 5 1006.6 - 0.0 - - - - - - -
07/12:30am 28.2 SSW 3 5 1006.8 - 0.0 - - - - - - -
07/12:00am 28.1 SSW 3 4 1007.0 - 0.0 - - - - - - -
 
Date/Time
WST
Temp

°C
Wind Pressure Rain
since 9am
mm
Weather Cloud Vis
km
Sea
Height
m
Swell
Dir
 
Speed
knots
Gust
knots
hPa Trend Height
m
Period
s
Dir
06/11:30pm 28.1 S 3 4 1007.4 - 0.0 - - - - - - -
06/11:00pm 28.2 CALM 0 0 1007.9 - 0.0 - - - - - - -
06/10:30pm 28.2 SE 4 5 1008.2 - 0.0 - - - - - - -
06/10:00pm 28.4 SSE 4 5 1008.4 - 0.0 - - - - - - -
06/09:30pm 28.3 SE 4 5 1008.3 - 0.0 - - - - - - -
06/09:00pm 28.3 E 3 4 1008.0 - 0.0 - - - - - - -
06/08:30pm 28.3 ESE 5 7 1008.0 - 0.0 - - - - - - -
06/08:00pm 28.2 ESE 6 8 1008.0 - 0.0 - - - - - - -
06/07:30pm 28.0 E 9 11 1007.7 - 0.0 - - - - - - -
06/07:00pm 28.3 ESE 13 19 1007.6 - 0.0 - - - - - - -
06/06:57pm 28.7 SSE 10 19 1007.5 - 0.0 - - - - - - -
06/06:30pm 29.7 SW 8 9 1007.0 - 0.0 - - - - - - -
06/06:00pm 29.8 WSW 8 10 1006.2 - 0.0 - - - - - - -
06/05:30pm 30.1 WSW 11 13 1005.9 - 0.0 - - - - - - -
06/05:00pm 30.5 W 13 15 1005.5 - 0.0 - - - - - - -
06/04:30pm 30.8 W 15 18 1004.8 - 0.0 - - - - - - -
06/04:00pm 31.0 W 15 18 1004.7 - 0.0 - - - - - - -
06/03:30pm 31.2 W 14 16 1004.7 - 0.0 - - - - - - -
06/03:00pm 31.5 W 13 15 1005.0 - 0.0 - - - - - - -
06/02:30pm 31.6 W 13 15 1005.1 - 0.0 - - - - - - -
06/02:00pm 31.9 W 12 14 1005.5 - 0.0 - - - - - - -
06/01:30pm 31.8 W 12 14 1005.7 - 0.0 - - - - - - -
06/01:00pm 31.7 W 11 14 1006.1 - 0.0 - - - - - - -
06/12:30pm 32.2 WSW 11 14 1006.4 - 0.0 - - - - - - -
06/12:00pm 32.0 W 12 14 1006.9 - 0.0 - - - - - - -
06/11:30am 31.9 W 13 16 1007.3 - 0.0 - - - - - - -
06/11:00am 31.6 W 12 14 1007.6 - 0.0 - - - - - - -
06/10:30am 31.4 WSW 11 14 1007.9 - 0.0 - - - - - - -
06/10:00am 31.2 WSW 11 13 1008.5 - 0.0 - - - - - - -
06/09:30am 31.3 SW 11 13 1008.8 - 0.0 - - - - - - -
06/09:00am 30.8 WSW 13 15 1009.0 - 0.0 - - - - - - -
06/08:30am 30.4 SW 13 15 1009.0 - 0.0 - - - - - - -
06/08:00am 29.9 SW 13 17 1008.9 - 0.0 - - - - - - -
06/07:30am 29.9 SW 14 17 1008.6 - 0.0 - - - - - - -
06/07:00am 29.4 WSW 15 17 1008.4 - 0.0 - - - - - - -
06/06:30am 29.0 WSW 16 19 1008.2 - 0.0 - - - - - - -
06/06:00am 28.3 WSW 13 16 1007.8 - 0.0 - - - - - - -
06/05:30am 28.2 WSW 13 16 1007.4 - 0.0 - - - - - - -
06/05:00am 28.1 W 13 17 1007.2 - 0.0 - - - - - - -
06/04:30am 28.2 W 15 18 1006.9 - 0.0 - - - - - - -
06/04:00am 28.2 W 16 19 1006.9 - 0.0 - - - - - - -
06/03:30am 28.2 W 15 17 1006.8 - 0.0 - - - - - - -
06/03:00am 28.3 W 15 17 1006.8 - 0.0 - - - - - - -
06/02:30am 28.3 W 14 17 1007.0 - 0.0 - - - - - - -
06/02:00am 28.3 W 12 16 1007.2 - 0.0 - - - - - - -
06/01:30am 28.4 W 13 15 1007.3 - 0.0 - - - - - - -
06/01:00am 28.4 W 10 13 1007.9 - 0.0 - - - - - - -
06/12:30am 28.4 WSW 10 12 1008.1 - 0.0 - - - - - - -
06/12:00am 28.4 W 9 11 1008.5 - 0.0 - - - - - - -
 
Date/Time
WST
Temp

°C
Wind Pressure Rain
since 9am
mm
Weather Cloud Vis
km
Sea
Height
m
Swell
Dir
 
Speed
knots
Gust
knots
hPa Trend Height
m
Period
s
Dir
05/11:30pm 28.5 W 11 13 1008.8 - 0.0 - - - - - - -
05/11:00pm 28.5 WNW 12 14 1009.1 - 0.0 - - - - - - -
05/10:30pm 28.7 W 14 16 1009.1 - 0.0 - - - - - - -
05/10:00pm 28.6 WNW 14 16 1009.1 - 0.0 - - - - - - -
05/09:30pm 28.8 WNW 15 17 1009.1 - 0.0 - - - - - - -
05/09:00pm 28.8 WNW 15 17 1008.7 - 0.0 - - - - - - -
05/08:30pm 28.8 WNW 14 16 1008.3 - 0.0 - - - - - - -
05/08:00pm 28.7 WNW 13 17 1008.3 - 0.0 - - - - - - -
05/07:30pm 28.8 WNW 16 19 1007.9 - 0.0 - - - - - - -
05/07:00pm 28.8 WNW 16 18 1007.4 - 0.0 - - - - - - -
05/06:30pm 28.9 WNW 14 17 1007.5 - 0.0 - - - - - - -
05/06:00pm 29.2 WNW 13 16 1007.3 - 0.0 - - - - - - -
05/05:30pm 29.6 WNW 14 18 1006.7 - 0.0 - - - - - - -
05/05:00pm 30.1 W 14 17 1006.4 - 0.0 - - - - - - -
05/04:30pm 30.3 W 15 18 1006.2 - 0.0 - - - - - - -
05/04:00pm 30.5 W 15 18 1006.0 - 0.0 - - - - - - -
05/03:30pm 31.0 W 14 17 1005.9 - 0.0 - - - - - - -
05/03:00pm 31.2 W 13 16 1006.0 - 0.0 - - - - - - -
05/02:30pm 31.1 W 13 15 1006.1 - 0.0 - - - - - - -
05/02:00pm 31.1 W 12 15 1006.3 - 0.0 - - - - - - -
05/01:30pm 31.2 W 10 12 1006.6 - 0.0 - - - - - - -
05/01:00pm 31.4 WSW 10 12 1007.0 - 0.0 - - - - - - -
05/12:30pm 31.6 WSW 9 11 1007.5 - 0.0 - - - - - - -
05/12:00pm 31.7 WSW 9 11 1007.8 - 0.0 - - - - - - -
05/11:30am 31.6 WSW 10 13 1008.1 - 0.0 - - - - - - -
05/11:00am 31.5 WSW 9 11 1008.6 - 0.0 - - - - - - -
05/10:30am 31.4 SW 8 11 1009.1 - 0.0 - - - - - - -
05/10:00am 31.3 SW 9 10 1009.3 - 0.0 - - - - - - -
05/09:30am 31.2 SW 9 11 1009.5 - 0.0 - - - - - - -
05/09:00am 31.0 SW 9 11 1009.6 - - Rain - - - - - -
05/08:00am 30.0 SW 9 11 1009.5 - 0.0 - - - - - - -
05/07:30am 29.7 SSW 9 10 1009.2 - 0.0 - - - - - - -
05/07:00am 29.3 SW 9 11 1009.1 - 0.0 - - - - - - -
05/06:30am 28.9 SW 8 11 1008.9 - 0.0 - - - - - - -

Other Formats:

Comma delimited format used in spreadsheet applications
http://www.bom.gov.au/fwo/IDW60701/IDW60701.94102.axf

JavaScript Object Notation format (JSON) in row-major order
http://www.bom.gov.au/fwo/IDW60701/IDW60701.94102.json